Century Venus — 3FXD2 — position and weather

sailwx.info

Track history (hours):
 
Tides and Currents Weather Stations Pressure Air Temp Water Temp Dewpoint Dewpoint Depression Visibility Wind Speed Wind Dir Waves Ship Positions

Century Venus

Last reported at 2017-Feb-26 02:32 UTC. Time now 2017-Feb-26 03:27 UTC.
Position N 27°55' W 082°25'.

Length 137 m; draft 8.3 m.

Type: Ship. MMSI: 357069000.

Date/timePositionNaut miles runAvg speedWind from/ knotsBaromVisibWave heightAir tempDewpointWater temp
2017-Feb-26 02:32N 27°55' W 082°25'0 0.0
2017-Feb-26 01:32N 27°55' W 082°25'0 0.0
2017-Feb-26 00:32N 27°55' W 082°25'0 0.0
2017-Feb-25 23:29N 27°55' W 082°25'0 0.0
2017-Feb-25 22:32N 27°55' W 082°25'0 0.0
2017-Feb-25 21:32N 27°55' W 082°25'0 0.0
2017-Feb-25 20:32N 27°55' W 082°25'0 0.0
2017-Feb-25 19:32N 27°55' W 082°25'0 0.0
2017-Feb-25 18:32N 27°55' W 082°25'0 0.0
2017-Feb-25 17:32N 27°55' W 082°25'0 0.0
2017-Feb-25 16:32N 27°55' W 082°25'0 0.0
2017-Feb-25 15:32N 27°55' W 082°25'0 0.0
2017-Feb-25 14:29N 27°55' W 082°25'0 0.0
2017-Feb-25 13:32N 27°55' W 082°25'0 0.0
2017-Feb-25 12:32N 27°55' W 082°25'0 0.0
2017-Feb-25 11:32N 27°55' W 082°25'0 0.0
2017-Feb-25 10:32N 27°55' W 082°25'0 0.0
2017-Feb-25 09:32N 27°55' W 082°25'0 0.0
2017-Feb-25 08:32N 27°55' W 082°25'0 0.0
2017-Feb-25 07:32N 27°55' W 082°25'0 0.0
2017-Feb-25 06:32N 27°55' W 082°25'0 0.0
2017-Feb-25 05:32N 27°55' W 082°25'0 0.0
2017-Feb-25 04:32N 27°55' W 082°25'0 0.0
2017-Feb-25 03:32N 27°55' W 082°25'0 0.0
2017-Feb-25 02:32N 27°55' W 082°25'0 0.4
2017-Feb-25 01:33N 27°55' W 082°25'4 4.1
2017-Feb-25 00:33N 27°51' W 082°26'2 2.1
2017-Feb-24 23:33N 27°51' W 082°24'0 0.0
2017-Feb-24 22:33N 27°51' W 082°24'0 0.0
2017-Feb-24 21:33N 27°51' W 082°24'0 0.0
2017-Feb-24 20:33N 27°51' W 082°24'0 0.0
2017-Feb-24 19:33N 27°51' W 082°24'0 0.0
2017-Feb-24 18:33N 27°51' W 082°24'0 0.0
2017-Feb-24 17:33N 27°51' W 082°24'0 0.0
2017-Feb-24 16:33N 27°51' W 082°24'0 0.0
2017-Feb-24 15:33N 27°51' W 082°24'0 0.0
2017-Feb-24 14:33N 27°51' W 082°24'0 0.0
2017-Feb-24 13:33N 27°51' W 082°24'0 0.0
2017-Feb-24 12:33N 27°51' W 082°24'0 0.0
2017-Feb-24 11:33N 27°51' W 082°24'0 0.0
2017-Feb-24 10:33N 27°51' W 082°24'0 0.0
2017-Feb-24 09:33N 27°51' W 082°24'0 0.0
2017-Feb-24 08:33N 27°51' W 082°24'0 0.0
2017-Feb-24 07:33N 27°51' W 082°24'0 0.0
2017-Feb-24 06:33N 27°51' W 082°24'0 0.0
2017-Feb-24 05:33N 27°51' W 082°24'1 0.6
2017-Feb-24 04:34N 27°51' W 082°24'8 8.0
2017-Feb-24 03:33N 27°46' W 082°31'1212.1
2017-Feb-24 02:33N 27°37' W 082°40'  
2017-Feb-20 04:09N 19°45' W 096°15'812.9
2017-Feb-20 03:33N 19°38' W 096°12'1412.9
2017-Feb-20 02:29N 19°26' W 096°05'7 7.6
2017-Feb-20 01:33N 19°19' W 096°02'7 7.0
2017-Feb-20 00:33N 19°12' W 096°01'7 7.1
2017-Feb-19 23:32N 19°12' W 096°08'0 0.0
2017-Feb-19 22:33N 19°12' W 096°08'0 0.0
2017-Feb-19 21:32N 19°12' W 096°08'0 0.0
2017-Feb-19 20:33N 19°12' W 096°08'0 0.0
2017-Feb-19 19:33N 19°12' W 096°08'0 0.0
2017-Feb-19 18:32N 19°12' W 096°08'0 0.0
2017-Feb-19 17:33N 19°12' W 096°08'0 0.0
2017-Feb-19 16:27N 19°12' W 096°08'0 0.0
2017-Feb-19 15:33N 19°12' W 096°08'0 0.0
2017-Feb-19 14:27N 19°12' W 096°08'0 0.0
2017-Feb-19 13:33N 19°12' W 096°08'0 0.0
2017-Feb-19 12:33N 19°12' W 096°08'0 0.0
2017-Feb-19 11:33N 19°12' W 096°08'0 0.0
2017-Feb-19 10:33N 19°12' W 096°08'0 0.0
2017-Feb-19 09:24N 19°12' W 096°08'0 0.0
2017-Feb-19 08:33N 19°12' W 096°08'0 0.0
2017-Feb-19 07:33N 19°12' W 096°08'0 0.0
2017-Feb-19 06:33N 19°12' W 096°08'0 0.0
2017-Feb-19 05:33N 19°12' W 096°08'0 0.0
2017-Feb-19 04:33N 19°12' W 096°08'0 0.0
2017-Feb-19 03:33N 19°12' W 096°08'0 0.0
2017-Feb-19 02:33N 19°12' W 096°08'0 0.0
2017-Feb-19 01:33N 19°12' W 096°08'0 0.0
2017-Feb-19 00:33N 19°12' W 096°08'0 0.0
2017-Feb-18 23:27N 19°12' W 096°08'0 0.0
2017-Feb-18 22:30N 19°12' W 096°08'0 0.0
2017-Feb-18 21:33N 19°12' W 096°08'0 0.0
2017-Feb-18 20:33N 19°12' W 096°08'0 0.0
2017-Feb-18 19:33N 19°12' W 096°08'0 0.0
2017-Feb-18 18:33N 19°12' W 096°08'0 0.0
2017-Feb-18 17:33N 19°12' W 096°08'0 0.0
2017-Feb-18 16:33N 19°12' W 096°08'0 0.0
2017-Feb-18 15:27N 19°12' W 096°08'0 0.0
2017-Feb-18 14:33N 19°12' W 096°08'0 0.0
2017-Feb-18 13:33N 19°12' W 096°08'0 0.0
2017-Feb-18 12:33N 19°12' W 096°08'0 0.0
2017-Feb-18 11:33N 19°12' W 096°08'0 0.0
2017-Feb-18 10:33N 19°12' W 096°08'0 0.0
2017-Feb-18 09:33N 19°12' W 096°08'0 0.0
2017-Feb-18 08:33N 19°12' W 096°08'0 0.0
2017-Feb-18 07:33N 19°12' W 096°08'0 0.0
2017-Feb-18 06:33N 19°12' W 096°08'0 0.0
2017-Feb-18 05:33N 19°12' W 096°08'0 0.3
2017-Feb-18 04:33N 19°12' W 096°08'7 7.1
2017-Feb-18 03:33N 19°09' W 096°01'2 2.3
2017-Feb-18 02:32N 19°07' W 096°01'0 0.0
2017-Feb-18 01:32N 19°07' W 096°00'0 0.0
2017-Feb-18 00:32N 19°07' W 096°00'0 0.0
2017-Feb-17 23:14N 19°07' W 096°00'0 0.0
2017-Feb-17 22:26N 19°07' W 096°00'0 0.0
2017-Feb-17 21:32N 19°07' W 096°00'0 0.0
2017-Feb-17 20:32N 19°07' W 096°00'0 0.0
2017-Feb-17 19:32N 19°07' W 096°00'0 0.0
2017-Feb-17 18:32N 19°07' W 096°00'0 0.0
2017-Feb-17 17:32N 19°07' W 096°00'0 0.0
2017-Feb-17 16:32N 19°07' W 096°00'0 0.0
2017-Feb-17 15:26N 19°07' W 096°00'0 0.0
2017-Feb-17 14:32N 19°07' W 096°00'0 0.1
2017-Feb-17 13:33N 19°07' W 096°00'5 4.7
2017-Feb-17 12:33N 19°12' W 095°60'10 9.5
2017-Feb-17 11:33N 19°21' W 096°01'1212.4
2017-Feb-17 10:33N 19°33' W 096°06'  
Track history (hours):
 
Tides and Currents Weather Stations Pressure Air Temp Water Temp Dewpoint Dewpoint Depression Visibility Wind Speed Wind Dir Waves Ship Positions

Century Venus

Last reported at 2017-Feb-26 02:32 UTC. Time now 2017-Feb-26 03:27 UTC.
Position N 27°55' W 082°25'.

Length 137 m; draft 8.3 m.

Type: Ship. MMSI: 357069000.

Date/timePositionNaut miles runAvg speedWind from/ knotsBaromVisibWave heightAir tempDewpointWater temp
2017-Feb-26 02:32N 27°55' W 082°25'0 0.0
2017-Feb-26 01:32N 27°55' W 082°25'0 0.0
2017-Feb-26 00:32N 27°55' W 082°25'0 0.0
2017-Feb-25 23:29N 27°55' W 082°25'0 0.0
2017-Feb-25 22:32N 27°55' W 082°25'0 0.0
2017-Feb-25 21:32N 27°55' W 082°25'0 0.0
2017-Feb-25 20:32N 27°55' W 082°25'0 0.0
2017-Feb-25 19:32N 27°55' W 082°25'0 0.0
2017-Feb-25 18:32N 27°55' W 082°25'0 0.0
2017-Feb-25 17:32N 27°55' W 082°25'0 0.0
2017-Feb-25 16:32N 27°55' W 082°25'0 0.0
2017-Feb-25 15:32N 27°55' W 082°25'0 0.0
2017-Feb-25 14:29N 27°55' W 082°25'0 0.0
2017-Feb-25 13:32N 27°55' W 082°25'0 0.0
2017-Feb-25 12:32N 27°55' W 082°25'0 0.0
2017-Feb-25 11:32N 27°55' W 082°25'0 0.0
2017-Feb-25 10:32N 27°55' W 082°25'0 0.0
2017-Feb-25 09:32N 27°55' W 082°25'0 0.0
2017-Feb-25 08:32N 27°55' W 082°25'0 0.0
2017-Feb-25 07:32N 27°55' W 082°25'0 0.0
2017-Feb-25 06:32N 27°55' W 082°25'0 0.0
2017-Feb-25 05:32N 27°55' W 082°25'0 0.0
2017-Feb-25 04:32N 27°55' W 082°25'0 0.0
2017-Feb-25 03:32N 27°55' W 082°25'0 0.0
2017-Feb-25 02:32N 27°55' W 082°25'0 0.4
2017-Feb-25 01:33N 27°55' W 082°25'4 4.1
2017-Feb-25 00:33N 27°51' W 082°26'2 2.1
2017-Feb-24 23:33N 27°51' W 082°24'0 0.0
2017-Feb-24 22:33N 27°51' W 082°24'0 0.0
2017-Feb-24 21:33N 27°51' W 082°24'0 0.0
2017-Feb-24 20:33N 27°51' W 082°24'0 0.0
2017-Feb-24 19:33N 27°51' W 082°24'0 0.0
2017-Feb-24 18:33N 27°51' W 082°24'0 0.0
2017-Feb-24 17:33N 27°51' W 082°24'0 0.0
2017-Feb-24 16:33N 27°51' W 082°24'0 0.0
2017-Feb-24 15:33N 27°51' W 082°24'0 0.0
2017-Feb-24 14:33N 27°51' W 082°24'0 0.0
2017-Feb-24 13:33N 27°51' W 082°24'0 0.0
2017-Feb-24 12:33N 27°51' W 082°24'0 0.0
2017-Feb-24 11:33N 27°51' W 082°24'0 0.0
2017-Feb-24 10:33N 27°51' W 082°24'0 0.0
2017-Feb-24 09:33N 27°51' W 082°24'0 0.0
2017-Feb-24 08:33N 27°51' W 082°24'0 0.0
2017-Feb-24 07:33N 27°51' W 082°24'0 0.0
2017-Feb-24 06:33N 27°51' W 082°24'0 0.0
2017-Feb-24 05:33N 27°51' W 082°24'1 0.6
2017-Feb-24 04:34N 27°51' W 082°24'8 8.0
2017-Feb-24 03:33N 27°46' W 082°31'1212.1
2017-Feb-24 02:33N 27°37' W 082°40'  
2017-Feb-20 04:09N 19°45' W 096°15'812.9
2017-Feb-20 03:33N 19°38' W 096°12'1412.9
2017-Feb-20 02:29N 19°26' W 096°05'7 7.6
2017-Feb-20 01:33N 19°19' W 096°02'7 7.0
2017-Feb-20 00:33N 19°12' W 096°01'7 7.1
2017-Feb-19 23:32N 19°12' W 096°08'0 0.0
2017-Feb-19 22:33N 19°12' W 096°08'0 0.0
2017-Feb-19 21:32N 19°12' W 096°08'0 0.0
2017-Feb-19 20:33N 19°12' W 096°08'0 0.0
2017-Feb-19 19:33N 19°12' W 096°08'0 0.0
2017-Feb-19 18:32N 19°12' W 096°08'0 0.0
2017-Feb-19 17:33N 19°12' W 096°08'0 0.0
2017-Feb-19 16:27N 19°12' W 096°08'0 0.0
2017-Feb-19 15:33N 19°12' W 096°08'0 0.0
2017-Feb-19 14:27N 19°12' W 096°08'0 0.0
2017-Feb-19 13:33N 19°12' W 096°08'0 0.0
2017-Feb-19 12:33N 19°12' W 096°08'0 0.0
2017-Feb-19 11:33N 19°12' W 096°08'0 0.0
2017-Feb-19 10:33N 19°12' W 096°08'0 0.0
2017-Feb-19 09:24N 19°12' W 096°08'0 0.0
2017-Feb-19 08:33N 19°12' W 096°08'0 0.0
2017-Feb-19 07:33N 19°12' W 096°08'0 0.0
2017-Feb-19 06:33N 19°12' W 096°08'0 0.0
2017-Feb-19 05:33N 19°12' W 096°08'0 0.0
2017-Feb-19 04:33N 19°12' W 096°08'0 0.0
2017-Feb-19 03:33N 19°12' W 096°08'0 0.0
2017-Feb-19 02:33N 19°12' W 096°08'0 0.0
2017-Feb-19 01:33N 19°12' W 096°08'0 0.0
2017-Feb-19 00:33N 19°12' W 096°08'0 0.0
2017-Feb-18 23:27N 19°12' W 096°08'0 0.0
2017-Feb-18 22:30N 19°12' W 096°08'0 0.0
2017-Feb-18 21:33N 19°12' W 096°08'0 0.0
2017-Feb-18 20:33N 19°12' W 096°08'0 0.0
2017-Feb-18 19:33N 19°12' W 096°08'0 0.0
2017-Feb-18 18:33N 19°12' W 096°08'0 0.0
2017-Feb-18 17:33N 19°12' W 096°08'0 0.0
2017-Feb-18 16:33N 19°12' W 096°08'0 0.0
2017-Feb-18 15:27N 19°12' W 096°08'0 0.0
2017-Feb-18 14:33N 19°12' W 096°08'0 0.0
2017-Feb-18 13:33N 19°12' W 096°08'0 0.0
2017-Feb-18 12:33N 19°12' W 096°08'0 0.0
2017-Feb-18 11:33N 19°12' W 096°08'0 0.0
2017-Feb-18 10:33N 19°12' W 096°08'0 0.0
2017-Feb-18 09:33N 19°12' W 096°08'0 0.0
2017-Feb-18 08:33N 19°12' W 096°08'0 0.0
2017-Feb-18 07:33N 19°12' W 096°08'0 0.0
2017-Feb-18 06:33N 19°12' W 096°08'0 0.0
2017-Feb-18 05:33N 19°12' W 096°08'0 0.3
2017-Feb-18 04:33N 19°12' W 096°08'7 7.1
2017-Feb-18 03:33N 19°09' W 096°01'2 2.3
2017-Feb-18 02:32N 19°07' W 096°01'0 0.0
2017-Feb-18 01:32N 19°07' W 096°00'0 0.0
2017-Feb-18 00:32N 19°07' W 096°00'0 0.0
2017-Feb-17 23:14N 19°07' W 096°00'0 0.0
2017-Feb-17 22:26N 19°07' W 096°00'0 0.0
2017-Feb-17 21:32N 19°07' W 096°00'0 0.0
2017-Feb-17 20:32N 19°07' W 096°00'0 0.0
2017-Feb-17 19:32N 19°07' W 096°00'0 0.0
2017-Feb-17 18:32N 19°07' W 096°00'0 0.0
2017-Feb-17 17:32N 19°07' W 096°00'0 0.0
2017-Feb-17 16:32N 19°07' W 096°00'0 0.0
2017-Feb-17 15:26N 19°07' W 096°00'0 0.0
2017-Feb-17 14:32N 19°07' W 096°00'0 0.1
2017-Feb-17 13:33N 19°07' W 096°00'5 4.7
2017-Feb-17 12:33N 19°12' W 095°60'10 9.5
2017-Feb-17 11:33N 19°21' W 096°01'1212.4
2017-Feb-17 10:33N 19°33' W 096°06'  

Dump ship's entire track history